Time,TemperatureF,DewpointF,PressureIn,WindDirection,WindDirectionDegrees,WindSpeedMPH,WindSpeedGustMPH,Humidity,HourlyPrecipIn,Conditions,Clouds,dailyrainin,SoftwareType,DateUTC
2013-02-02 00:00:00,57.6,47.5,30.31,NNE,13,2.9,9.2,69,0.00,CLR,OVC,0.00,WeatherDisplay:10.37,2013-02-02 05:00:00,
2013-02-02 00:05:00,57.5,47.4,30.31,NNW,343,4.9,5.9,69,0.00,CLR,OVC,0.00,WeatherDisplay:10.37,2013-02-02 05:05:00,
2013-02-02 00:10:00,57.5,47.4,30.31,NNE,27,4.6,6.9,69,0.00,CLR,OVC,0.00,WeatherDisplay:10.37,2013-02-02 05:10:00,
2013-02-02 00:15:00,57.3,47.2,30.31,North,357,2.6,4.5,69,0.00,CLR,OVC,0.00,WeatherDisplay:10.37,2013-02-02 05:15:00,
2013-02-02 00:20:00,57.3,47.6,30.31,NNE,25,1.8,3.5,70,0.00,CLR,OVC,0.00,WeatherDisplay:10.37,2013-02-02 05:20:00,
2013-02-02 00:25:00,57.3,47.6,30.31,NE,55,1.2,2.3,70,0.00,CLR,OVC,0.00,WeatherDisplay:10.37,2013-02-02 05:25:00,
2013-02-02 00:30:00,57.3,48.0,30.31,NNE,14,0.0,0.0,71,0.00,CLR,OVC,0.00,WeatherDisplay:10.37,2013-02-02 05:30:00,
2013-02-02 00:35:00,57.2,47.9,30.31,East,88,0.0,0.0,71,0.00,CLR,OVC,0.00,WeatherDisplay:10.37,2013-02-02 05:35:00,
2013-02-02 00:40:00,57.1,47.8,30.31,NE,35,1.6,2.3,71,0.00,CLR,OVC,0.00,WeatherDisplay:10.37,2013-02-02 05:40:00,
2013-02-02 00:45:00,56.8,47.9,30.31,NE,51,2.1,3.5,72,0.00,CLR,OVC,0.00,WeatherDisplay:10.37,2013-02-02 05:45:00,
2013-02-02 00:50:00,56.7,47.8,30.31,NNE,23,0.8,4.6,72,0.00,CLR,OVC,0.00,WeatherDisplay:10.37,2013-02-02 05:50:00,
2013-02-02 00:55:00,56.5,47.6,30.31,NE,52,2.3,4.6,72,0.00,CLR,OVC,0.00,WeatherDisplay:10.37,2013-02-02 05:55:00,
2013-02-02 01:00:00,56.3,47.4,30.32,NE,55,1.3,2.7,72,0.00,CLR,OVC,0.00,WeatherDisplay:10.37,2013-02-02 06:00:00,
2013-02-02 01:05:00,56.2,47.3,30.31,North,0,3.7,4.6,72,0.00,CLR,OVC,0.00,WeatherDisplay:10.37,2013-02-02 06:05:00,
2013-02-02 01:10:00,56.0,47.5,30.32,North,4,3.2,4.6,73,0.00,CLR,OVC,0.00,WeatherDisplay:10.37,2013-02-02 06:10:00,
2013-02-02 01:15:00,55.9,47.4,30.32,NE,35,2.1,6.9,73,0.00,CLR,OVC,0.00,WeatherDisplay:10.37,2013-02-02 06:15:00,
2013-02-02 01:20:00,55.9,47.7,30.32,ENE,58,2.5,6.9,74,0.00,CLR,OVC,0.00,WeatherDisplay:10.37,2013-02-02 06:20:00,
2013-02-02 01:25:00,55.9,47.7,30.32,East,79,2.7,3.5,74,0.00,CLR,OVC,0.00,WeatherDisplay:10.37,2013-02-02 06:25:00,
2013-02-02 01:30:00,55.8,47.6,30.32,ENE,78,2.6,3.5,74,0.00,CLR,OVC,0.00,WeatherDisplay:10.37,2013-02-02 06:30:00,
2013-02-02 01:35:00,55.8,47.6,30.32,NE,38,2.6,4.6,74,0.00,CLR,OVC,0.00,WeatherDisplay:10.37,2013-02-02 06:35:00,
2013-02-02 01:40:00,55.6,47.8,30.32,NE,37,3.4,4.6,75,0.00,CLR,OVC,0.00,WeatherDisplay:10.37,2013-02-02 06:40:00,
2013-02-02 01:45:00,55.4,47.2,30.32,ENE,76,4.5,5.8,74,0.00,CLR,OVC,0.00,WeatherDisplay:10.37,2013-02-02 06:45:00,
2013-02-02 01:50:00,55.4,47.2,30.32,ENE,64,4.5,5.8,74,0.00,CLR,OVC,0.00,WeatherDisplay:10.37,2013-02-02 06:50:00,
2013-02-02 01:55:00,55.2,47.1,30.32,ENE,62,3.3,4.6,74,0.00,CLR,OVC,0.00,WeatherDisplay:10.37,2013-02-02 06:55:00,
2013-02-02 02:00:00,55.0,46.5,30.32,East,82,3.0,4.6,73,0.00,CLR,OVC,0.00,WeatherDisplay:10.37,2013-02-02 07:00:00,
2013-02-02 02:05:00,55.0,46.5,30.32,ENE,78,3.0,5.8,73,0.00,CLR,OVC,0.00,WeatherDisplay:10.37,2013-02-02 07:05:00,
2013-02-02 02:10:00,54.9,46.4,30.32,NE,49,2.5,4.3,73,0.00,CLR,OVC,0.00,WeatherDisplay:10.37,2013-02-02 07:10:00,
2013-02-02 02:15:00,54.7,45.8,30.31,NE,42,3.1,4.6,72,0.00,CLR,OVC,0.00,WeatherDisplay:10.37,2013-02-02 07:15:00,
2013-02-02 02:20:00,54.7,45.8,30.31,NE,55,0.6,5.5,72,0.00,CLR,OVC,0.00,WeatherDisplay:10.37,2013-02-02 07:20:00,
2013-02-02 02:25:00,54.5,45.7,30.31,East,82,0.0,0.0,72,0.00,CLR,OVC,0.00,WeatherDisplay:10.37,2013-02-02 07:25:00,
2013-02-02 02:30:00,54.4,45.2,30.31,ENE,59,3.1,7.3,71,0.00,CLR,OVC,0.00,WeatherDisplay:10.37,2013-02-02 07:30:00,
2013-02-02 02:35:00,54.2,45.0,30.31,ENE,61,0.4,2.3,71,0.00,CLR,OVC,0.00,WeatherDisplay:10.37,2013-02-02 07:35:00,
2013-02-02 02:40:00,54.1,44.5,30.31,ENE,61,3.9,6.9,70,0.00,CLR,OVC,0.00,WeatherDisplay:10.37,2013-02-02 07:40:00,
2013-02-02 02:45:00,54.0,44.1,30.31,ENE,58,3.3,4.6,69,0.00,CLR,OVC,0.00,WeatherDisplay:10.37,2013-02-02 07:45:00,
2013-02-02 02:51:00,53.8,43.5,30.31,NE,42,3.0,6.9,68,0.00,CLR,OVC,0.00,WeatherDisplay:10.37,2013-02-02 07:51:00,
2013-02-02 02:56:00,53.6,42.9,30.31,NE,42,1.6,5.8,67,0.00,CLR,OVC,0.00,WeatherDisplay:10.37,2013-02-02 07:56:00,
2013-02-02 03:01:00,53.4,42.7,30.31,NE,40,4.0,8.1,67,0.00,CLR,OVC,0.00,WeatherDisplay:10.37,2013-02-02 08:01:00,
2013-02-02 03:06:00,53.5,42.4,30.31,NE,51,3.5,5.8,66,0.00,CLR,OVC,0.00,WeatherDisplay:10.37,2013-02-02 08:06:00,
2013-02-02 03:11:00,53.4,42.3,30.31,NE,56,3.1,5.8,66,0.00,CLR,OVC,0.00,WeatherDisplay:10.37,2013-02-02 08:11:00,
2013-02-02 03:16:00,53.2,42.1,30.31,NE,44,3.4,4.6,66,0.00,CLR,OVC,0.00,WeatherDisplay:10.37,2013-02-02 08:16:00,
2013-02-02 03:21:00,53.1,42.0,30.31,NE,44,4.6,6.9,66,0.00,CLR,OVC,0.00,WeatherDisplay:10.37,2013-02-02 08:21:00,
2013-02-02 03:26:00,53.2,42.1,30.31,East,82,4.0,8.1,66,0.00,CLR,OVC,0.00,WeatherDisplay:10.37,2013-02-02 08:26:00,
2013-02-02 03:31:00,53.1,42.0,30.31,NNE,13,2.7,4.6,66,0.00,CLR,OVC,0.00,WeatherDisplay:10.37,2013-02-02 08:31:00,
2013-02-02 03:36:00,53.0,41.9,30.31,NE,40,4.4,6.9,66,0.00,CLR,OVC,0.00,WeatherDisplay:10.37,2013-02-02 08:36:00,
2013-02-02 03:41:00,52.9,42.2,30.31,NNE,21,3.2,5.8,67,0.00,CLR,OVC,0.00,WeatherDisplay:10.37,2013-02-02 08:41:00,
2013-02-02 03:46:00,52.8,42.1,30.31,ENE,69,6.2,8.1,67,0.00,CLR,OVC,0.00,WeatherDisplay:10.37,2013-02-02 08:46:00,
2013-02-02 03:51:00,52.7,42.0,30.31,ENE,75,3.6,6.9,67,0.00,CLR,OVC,0.00,WeatherDisplay:10.37,2013-02-02 08:51:00,
2013-02-02 03:56:00,52.5,41.9,30.31,NNE,14,4.1,6.9,67,0.00,CLR,OVC,0.00,WeatherDisplay:10.37,2013-02-02 08:56:00,
2013-02-02 04:01:00,52.4,41.8,30.31,East,97,4.2,7.0,67,0.00,CLR,OVC,0.00,WeatherDisplay:10.37,2013-02-02 09:01:00,
2013-02-02 04:06:00,52.3,42.0,30.31,East,88,5.1,6.9,68,0.00,CLR,OVC,0.00,WeatherDisplay:10.37,2013-02-02 09:06:00,
2013-02-02 04:11:00,52.2,42.0,30.31,NE,52,3.4,5.8,68,0.00,CLR,OVC,0.00,WeatherDisplay:10.37,2013-02-02 09:11:00,
2013-02-02 04:16:00,52.2,42.0,30.32,ENE,65,3.5,5.8,68,0.00,CLR,OVC,0.00,WeatherDisplay:10.37,2013-02-02 09:16:00,
2013-02-02 04:21:00,52.2,42.0,30.32,NE,49,3.4,6.9,68,0.00,CLR,OVC,0.00,WeatherDisplay:10.37,2013-02-02 09:21:00,
2013-02-02 04:26:00,51.9,41.7,30.31,NE,40,3.6,4.6,68,0.00,CLR,OVC,0.00,WeatherDisplay:10.37,2013-02-02 09:26:00,
2013-02-02 04:31:00,52.0,41.8,30.31,ENE,64,3.5,5.8,68,0.00,CLR,OVC,0.00,WeatherDisplay:10.37,2013-02-02 09:31:00,
2013-02-02 04:36:00,51.9,41.7,30.31,NE,42,4.1,6.9,68,0.00,CLR,OVC,0.00,WeatherDisplay:10.37,2013-02-02 09:36:00,
2013-02-02 04:41:00,51.8,41.6,30.31,East,83,5.6,9.2,68,0.00,CLR,OVC,0.00,WeatherDisplay:10.37,2013-02-02 09:41:00,
2013-02-02 04:46:00,51.7,41.9,30.32,NE,44,4.1,6.9,69,0.00,CLR,OVC,0.00,WeatherDisplay:10.37,2013-02-02 09:46:00,
2013-02-02 04:51:00,51.7,41.9,30.31,East,92,5.3,7.5,69,0.00,CLR,OVC,0.00,WeatherDisplay:10.37,2013-02-02 09:51:00,
2013-02-02 04:56:00,51.7,41.9,30.32,East,86,4.9,8.1,69,0.00,CLR,OVC,0.00,WeatherDisplay:10.37,2013-02-02 09:56:00,
2013-02-02 05:01:00,51.4,41.6,30.32,NNE,17,4.9,6.9,69,0.00,CLR,OVC,0.00,WeatherDisplay:10.37,2013-02-02 10:01:00,
2013-02-02 05:06:00,51.3,41.5,30.32,ENE,62,5.5,8.1,69,0.00,CLR,OVC,0.00,WeatherDisplay:10.37,2013-02-02 10:06:00,
2013-02-02 05:11:00,51.0,41.2,30.32,East,85,5.0,6.9,69,0.00,CLR,OVC,0.00,WeatherDisplay:10.37,2013-02-02 10:11:00,
2013-02-02 05:16:00,51.0,41.2,30.31,ENE,72,1.6,4.6,69,0.00,CLR,OVC,0.00,WeatherDisplay:10.37,2013-02-02 10:16:00,
2013-02-02 05:21:00,50.8,41.4,30.31,ENE,64,4.8,9.2,70,0.00,CLR,OVC,0.00,WeatherDisplay:10.37,2013-02-02 10:21:00,
2013-02-02 05:26:00,50.8,41.4,30.31,ESE,109,3.6,4.6,70,0.00,CLR,OVC,0.00,WeatherDisplay:10.37,2013-02-02 10:26:00,
2013-02-02 05:31:00,50.7,41.3,30.31,ENE,75,4.4,7.3,70,0.00,CLR,OVC,0.00,WeatherDisplay:10.37,2013-02-02 10:31:00,
2013-02-02 05:36:00,50.7,41.3,30.31,NE,35,3.8,5.8,70,0.00,CLR,OVC,0.00,WeatherDisplay:10.37,2013-02-02 10:36:00,
2013-02-02 05:41:00,50.7,41.3,30.31,ENE,76,2.9,6.9,70,0.00,CLR,OVC,0.00,WeatherDisplay:10.37,2013-02-02 10:41:00,
2013-02-02 05:46:00,50.6,41.2,30.31,East,86,4.6,6.9,70,0.00,CLR,OVC,0.00,WeatherDisplay:10.37,2013-02-02 10:46:00,
2013-02-02 05:51:00,50.5,41.1,30.31,ENE,75,5.3,8.1,70,0.00,CLR,OVC,0.00,WeatherDisplay:10.37,2013-02-02 10:51:00,
2013-02-02 05:56:00,50.4,41.0,30.32,NE,56,3.3,5.8,70,0.00,CLR,OVC,0.00,WeatherDisplay:10.37,2013-02-02 10:56:00,
2013-02-02 06:01:00,50.3,40.9,30.32,NE,52,3.4,4.6,70,0.00,CLR,OVC,0.00,WeatherDisplay:10.37,2013-02-02 11:01:00,
2013-02-02 06:06:00,50.3,40.9,30.32,East,90,4.2,6.9,70,0.00,CLR,OVC,0.00,WeatherDisplay:10.37,2013-02-02 11:06:00,
2013-02-02 06:11:00,50.2,40.8,30.32,NE,51,4.9,6.9,70,0.00,CLR,OVC,0.00,WeatherDisplay:10.37,2013-02-02 11:11:00,
2013-02-02 06:16:00,50.1,40.7,30.32,ENE,58,5.2,6.9,70,0.00,CLR,OVC,0.00,WeatherDisplay:10.37,2013-02-02 11:16:00,
2013-02-02 06:21:00,50.1,40.7,30.32,East,83,4.3,8.1,70,0.00,CLR,OVC,0.00,WeatherDisplay:10.37,2013-02-02 11:21:00,
2013-02-02 06:26:00,50.2,40.4,30.32,East,82,2.6,4.6,69,0.00,CLR,OVC,0.00,WeatherDisplay:10.37,2013-02-02 11:26:00,
2013-02-02 06:31:00,50.2,40.4,30.32,East,82,2.9,6.9,69,0.00,CLR,OVC,0.00,WeatherDisplay:10.37,2013-02-02 11:31:00,
2013-02-02 06:36:00,50.1,40.3,30.33,NNE,24,2.3,5.8,69,0.00,CLR,OVC,0.00,WeatherDisplay:10.37,2013-02-02 11:36:00,
2013-02-02 06:41:00,50.1,40.3,30.33,NE,51,3.6,4.6,69,0.00,CLR,OVC,0.00,WeatherDisplay:10.37,2013-02-02 11:41:00,
2013-02-02 06:46:00,50.1,40.3,30.33,ENE,58,2.7,4.6,69,0.00,CLR,OVC,0.00,WeatherDisplay:10.37,2013-02-02 11:46:00,
2013-02-02 06:51:00,50.0,40.2,30.33,NE,55,4.7,8.1,69,0.00,CLR,OVC,0.00,WeatherDisplay:10.37,2013-02-02 11:51:00,
2013-02-02 06:56:00,50.0,40.2,30.33,NE,48,3.1,6.6,69,0.00,CLR,OVC,0.00,WeatherDisplay:10.37,2013-02-02 11:56:00,
2013-02-02 07:01:00,50.0,40.2,30.33,ENE,59,2.7,4.6,69,0.00,CLR,OVC,0.00,WeatherDisplay:10.37,2013-02-02 12:01:00,
2013-02-02 07:06:00,50.0,40.2,30.33,ESE,104,1.9,6.9,69,0.00,CLR,OVC,0.00,WeatherDisplay:10.37,2013-02-02 12:06:00,
2013-02-02 07:11:00,49.9,40.5,30.33,ESE,113,1.8,3.5,70,0.00,CLR,OVC,0.00,WeatherDisplay:10.37,2013-02-02 12:11:00,
2013-02-02 07:16:00,49.9,40.5,30.33,NE,35,3.6,5.8,70,0.00,CLR,OVC,0.00,WeatherDisplay:10.37,2013-02-02 12:16:00,
2013-02-02 07:21:00,49.9,40.9,30.33,ENE,78,4.1,6.9,71,0.00,CLR,OVC,0.00,WeatherDisplay:10.37,2013-02-02 12:21:00,
2013-02-02 07:26:00,50.0,41.0,30.33,ENE,61,3.1,5.8,71,0.00,CLR,OVC,0.00,WeatherDisplay:10.37,2013-02-02 12:26:00,
2013-02-02 07:31:00,50.0,41.3,30.33,NE,55,3.9,5.8,72,0.00,CLR,OVC,0.00,WeatherDisplay:10.37,2013-02-02 12:31:00,
2013-02-02 07:36:00,50.1,41.4,30.33,East,79,2.8,4.9,72,0.00,CLR,OVC,0.00,WeatherDisplay:10.37,2013-02-02 12:36:00,
2013-02-02 07:41:00,50.0,41.3,30.33,ENE,65,5.0,8.1,72,0.00,CLR,OVC,0.00,WeatherDisplay:10.37,2013-02-02 12:41:00,
2013-02-02 07:46:00,50.1,41.4,30.34,ESE,103,4.4,6.9,72,0.00,CLR,OVC,0.00,WeatherDisplay:10.37,2013-02-02 12:46:00,
2013-02-02 07:51:00,50.1,41.4,30.34,NE,37,2.5,5.8,72,0.00,CLR,OVC,0.00,WeatherDisplay:10.37,2013-02-02 12:51:00,
2013-02-02 07:56:00,50.1,41.1,30.34,ENE,59,6.3,9.2,71,0.00,CLR,OVC,0.00,WeatherDisplay:10.37,2013-02-02 12:56:00,
2013-02-02 08:01:00,50.2,41.2,30.34,NE,55,4.6,9.2,71,0.00,CLR,OVC,0.00,WeatherDisplay:10.37,2013-02-02 13:01:00,
2013-02-02 08:06:00,50.3,40.9,30.34,ENE,73,5.4,9.2,70,0.00,CLR,OVC,0.00,WeatherDisplay:10.37,2013-02-02 13:06:00,
2013-02-02 08:11:00,50.6,41.5,30.34,ENE,72,3.8,5.8,71,0.00,CLR,OVC,0.00,WeatherDisplay:10.37,2013-02-02 13:11:00,
2013-02-02 08:16:00,50.9,41.5,30.34,ENE,61,0.0,0.0,70,0.00,CLR,OVC,0.00,WeatherDisplay:10.37,2013-02-02 13:16:00,
2013-02-02 08:21:00,51.2,41.7,30.34,ENE,62,5.9,8.1,70,0.00,CLR,OVC,0.00,WeatherDisplay:10.37,2013-02-02 13:21:00,
2013-02-02 08:26:00,51.5,42.0,30.34,NE,56,6.4,10.4,70,0.00,CLR,OVC,0.00,WeatherDisplay:10.37,2013-02-02 13:26:00,
2013-02-02 08:31:00,51.6,41.8,30.35,NNE,23,7.2,11.5,69,0.00,CLR,OVC,0.00,WeatherDisplay:10.37,2013-02-02 13:31:00,
2013-02-02 08:36:00,51.8,41.9,30.34,NNE,24,4.5,6.9,69,0.00,CLR,OVC,0.00,WeatherDisplay:10.37,2013-02-02 13:36:00,
2013-02-02 08:41:00,52.1,41.9,30.34,ENE,73,5.9,10.4,68,0.00,CLR,OVC,0.00,WeatherDisplay:10.37,2013-02-02 13:41:00,
2013-02-02 08:46:00,52.3,42.0,30.34,ENE,61,4.2,8.1,68,0.00,CLR,OVC,0.00,WeatherDisplay:10.37,2013-02-02 13:46:00,
2013-02-02 08:51:00,52.8,42.5,30.34,ENE,62,3.2,5.8,68,0.00,CLR,OVC,0.00,WeatherDisplay:10.37,2013-02-02 13:51:00,
2013-02-02 08:56:00,53.1,42.8,30.34,ENE,65,5.6,8.1,68,0.00,CLR,OVC,0.00,WeatherDisplay:10.37,2013-02-02 13:56:00,
2013-02-02 09:01:00,53.5,42.8,30.34,NE,52,4.9,6.9,67,0.00,CLR,OVC,0.00,WeatherDisplay:10.37,2013-02-02 14:01:00,
2013-02-02 09:06:00,54.0,43.3,30.34,ENE,73,2.8,5.8,67,0.00,CLR,OVC,0.00,WeatherDisplay:10.37,2013-02-02 14:06:00,
2013-02-02 09:11:00,54.5,43.4,30.34,NE,56,6.0,8.1,66,0.00,CLR,OVC,0.00,WeatherDisplay:10.37,2013-02-02 14:11:00,
2013-02-02 09:16:00,55.0,44.2,30.34,ENE,65,5.5,8.1,67,0.00,CLR,OVC,0.00,WeatherDisplay:10.37,2013-02-02 14:16:00,
2013-02-02 09:21:00,55.4,43.8,30.34,ENE,68,5.3,10.4,65,0.00,CLR,OVC,0.00,WeatherDisplay:10.37,2013-02-02 14:21:00,
2013-02-02 09:26:00,55.7,44.1,30.34,East,93,6.4,8.1,65,0.00,CLR,OVC,0.00,WeatherDisplay:10.37,2013-02-02 14:26:00,
2013-02-02 09:31:00,56.1,44.1,30.34,NE,54,6.4,9.2,64,0.00,CLR,OVC,0.00,WeatherDisplay:10.37,2013-02-02 14:31:00,
2013-02-02 09:36:00,56.5,44.5,30.34,ENE,64,4.7,8.1,64,0.00,CLR,OVC,0.00,WeatherDisplay:10.37,2013-02-02 14:36:00,
2013-02-02 09:41:00,57.0,44.9,30.34,ESE,116,3.5,5.8,64,0.00,CLR,OVC,0.00,WeatherDisplay:10.37,2013-02-02 14:41:00,
2013-02-02 09:46:00,57.8,45.7,30.34,ESE,112,3.7,6.9,64,0.00,CLR,OVC,0.00,WeatherDisplay:10.37,2013-02-02 14:46:00,
2013-02-02 09:51:00,58.2,45.7,30.34,ESE,107,4.9,9.2,63,0.00,CLR,OVC,0.00,WeatherDisplay:10.37,2013-02-02 14:51:00,
2013-02-02 09:56:00,58.4,45.0,30.34,SE,124,5.8,8.1,61,0.00,CLR,OVC,0.00,WeatherDisplay:10.37,2013-02-02 14:56:00,
2013-02-02 10:01:00,58.6,45.6,30.34,ENE,58,5.0,11.5,62,0.00,CLR,OVC,0.00,WeatherDisplay:10.37,2013-02-02 15:01:00,
2013-02-02 10:06:00,59.0,45.6,30.34,NE,45,6.3,9.2,61,0.00,CLR,OVC,0.00,WeatherDisplay:10.37,2013-02-02 15:06:00,
2013-02-02 10:11:00,59.2,45.8,30.33,East,82,6.7,9.2,61,0.00,CLR,OVC,0.00,WeatherDisplay:10.37,2013-02-02 15:11:00,
2013-02-02 10:16:00,59.4,45.5,30.33,East,80,7.3,11.5,60,0.00,CLR,OVC,0.00,WeatherDisplay:10.37,2013-02-02 15:16:00,
2013-02-02 10:21:00,59.6,45.2,30.33,ENE,62,5.8,9.2,59,0.00,CLR,OVC,0.00,WeatherDisplay:10.37,2013-02-02 15:21:00,
2013-02-02 10:26:00,60.0,45.2,30.33,East,97,4.9,11.5,58,0.00,CLR,OVC,0.00,WeatherDisplay:10.37,2013-02-02 15:26:00,
2013-02-02 10:31:00,60.4,45.5,30.33,East,80,2.5,8.1,58,0.00,CLR,OVC,0.00,WeatherDisplay:10.37,2013-02-02 15:31:00,
2013-02-02 10:36:00,60.9,46.0,30.33,ESE,117,5.1,8.1,58,0.00,CLR,OVC,0.00,WeatherDisplay:10.37,2013-02-02 15:36:00,
2013-02-02 10:41:00,61.2,45.8,30.33,ENE,69,5.3,9.3,57,0.00,CLR,OVC,0.00,WeatherDisplay:10.37,2013-02-02 15:41:00,
2013-02-02 10:46:00,61.5,46.6,30.33,South,176,6.1,6.9,58,0.00,CLR,OVC,0.00,WeatherDisplay:10.37,2013-02-02 15:46:00,
2013-02-02 10:51:00,61.9,46.0,30.32,NE,34,4.1,8.1,56,0.00,CLR,OVC,0.00,WeatherDisplay:10.37,2013-02-02 15:51:00,
2013-02-02 10:56:00,62.3,46.4,30.32,ENE,66,5.9,9.2,56,0.00,CLR,OVC,0.00,WeatherDisplay:10.37,2013-02-02 15:56:00,
2013-02-02 11:01:00,62.5,46.1,30.32,East,96,4.3,8.1,55,0.00,CLR,OVC,0.00,WeatherDisplay:10.37,2013-02-02 16:01:00,
2013-02-02 11:06:00,63.0,46.1,30.32,East,89,5.8,9.2,54,0.00,CLR,OVC,0.00,WeatherDisplay:10.37,2013-02-02 16:06:00,
2013-02-02 11:11:00,63.3,45.9,30.32,SE,131,0.0,5.8,53,0.00,CLR,OVC,0.00,WeatherDisplay:10.37,2013-02-02 16:11:00,
2013-02-02 11:16:00,63.6,45.1,30.32,NE,56,9.6,12.7,51,0.00,CLR,OVC,0.00,WeatherDisplay:10.37,2013-02-02 16:16:00,
2013-02-02 11:21:00,63.7,46.2,30.32,NE,42,4.0,5.8,53,0.00,CLR,OVC,0.00,WeatherDisplay:10.37,2013-02-02 16:21:00,
2013-02-02 11:26:00,64.2,46.7,30.32,East,90,3.2,4.6,53,0.00,CLR,OVC,0.00,WeatherDisplay:10.37,2013-02-02 16:26:00,
2013-02-02 11:31:00,64.8,46.2,30.32,NE,51,5.3,6.9,51,0.00,CLR,OVC,0.00,WeatherDisplay:10.37,2013-02-02 16:31:00,
2013-02-02 11:36:00,65.1,46.0,30.31,ESE,112,4.0,6.9,50,0.00,CLR,OVC,0.00,WeatherDisplay:10.37,2013-02-02 16:36:00,
2013-02-02 11:41:00,65.4,46.3,30.31,SSE,154,6.7,7.1,50,0.00,CLR,OVC,0.00,WeatherDisplay:10.37,2013-02-02 16:41:00,
2013-02-02 11:46:00,65.7,44.9,30.31,East,96,4.7,8.1,47,0.00,CLR,OVC,0.00,WeatherDisplay:10.37,2013-02-02 16:46:00,
2013-02-02 11:51:00,66.0,46.3,30.30,NE,42,3.5,5.8,49,0.00,CLR,OVC,0.00,WeatherDisplay:10.37,2013-02-02 16:51:00,
2013-02-02 11:56:00,66.1,44.7,30.30,East,85,2.8,6.9,46,0.00,CLR,OVC,0.00,WeatherDisplay:10.37,2013-02-02 16:56:00,
2013-02-02 12:01:00,66.7,46.4,30.30,NE,48,4.7,7.3,48,0.00,CLR,OVC,0.00,WeatherDisplay:10.37,2013-02-02 17:01:00,
2013-02-02 12:06:00,66.9,45.4,30.30,North,3,3.7,6.9,46,0.00,CLR,OVC,0.00,WeatherDisplay:10.37,2013-02-02 17:06:00,
2013-02-02 12:11:00,67.2,45.1,30.30,SSE,158,2.9,6.9,45,0.00,CLR,OVC,0.00,WeatherDisplay:10.37,2013-02-02 17:11:00,
2013-02-02 12:16:00,67.8,45.1,30.29,ENE,73,4.3,5.8,44,0.00,CLR,OVC,0.00,WeatherDisplay:10.37,2013-02-02 17:16:00,
2013-02-02 12:21:00,68.3,45.5,30.29,NNE,31,3.9,4.6,44,0.00,CLR,OVC,0.00,WeatherDisplay:10.37,2013-02-02 17:21:00,
2013-02-02 12:26:00,68.4,41.8,30.29,NW,311,0.1,2.3,38,0.00,CLR,OVC,0.00,WeatherDisplay:10.37,2013-02-02 17:26:00,
2013-02-02 12:32:00,69.1,42.4,30.28,ESE,107,4.9,6.9,38,0.00,CLR,OVC,0.00,WeatherDisplay:10.37,2013-02-02 17:32:00,
2013-02-02 12:37:00,69.4,41.3,30.28,ENE,73,3.6,6.1,36,0.00,CLR,OVC,0.00,WeatherDisplay:10.37,2013-02-02 17:37:00,
2013-02-02 12:42:00,69.7,41.5,30.28,ENE,62,2.4,5.5,36,0.00,CLR,OVC,0.00,WeatherDisplay:10.37,2013-02-02 17:42:00,
2013-02-02 12:47:00,70.4,42.2,30.28,NNE,25,4.3,5.8,36,0.00,CLR,OVC,0.00,WeatherDisplay:10.37,2013-02-02 17:47:00,
2013-02-02 12:52:00,70.7,40.9,30.27,NNW,343,2.2,3.5,34,0.00,CLR,OVC,0.00,WeatherDisplay:10.37,2013-02-02 17:52:00,
2013-02-02 12:57:00,71.3,43.0,30.27,North,360,3.6,4.6,36,0.00,CLR,OVC,0.00,WeatherDisplay:10.37,2013-02-02 17:57:00,
2013-02-02 13:02:00,71.6,42.5,30.27,North,357,1.0,3.5,35,0.00,CLR,OVC,0.00,WeatherDisplay:10.37,2013-02-02 18:02:00,
2013-02-02 13:07:00,72.3,41.6,30.26,SE,144,3.0,7.4,33,0.00,CLR,OVC,0.00,WeatherDisplay:10.37,2013-02-02 18:07:00,
2013-02-02 13:12:00,72.6,40.2,30.26,SSW,193,2.8,3.5,31,0.00,CLR,OVC,0.00,WeatherDisplay:10.37,2013-02-02 18:12:00,
2013-02-02 13:17:00,72.5,41.0,30.26,South,171,0.3,3.5,32,0.00,CLR,OVC,0.00,WeatherDisplay:10.37,2013-02-02 18:17:00,
2013-02-02 13:22:00,71.8,35.0,30.26,WSW,257,1.7,3.5,26,0.00,CLR,OVC,0.00,WeatherDisplay:10.37,2013-02-02 18:22:00,
2013-02-02 13:27:00,71.5,35.7,30.25,WNW,285,0.6,2.7,27,0.00,CLR,OVC,0.00,WeatherDisplay:10.37,2013-02-02 18:27:00,
2013-02-02 13:32:00,71.5,45.9,30.25,NNW,335,5.3,8.1,40,0.00,CLR,OVC,0.00,WeatherDisplay:10.37,2013-02-02 18:32:00,
2013-02-02 13:37:00,72.2,46.5,30.25,NNW,336,5.9,9.2,40,0.00,CLR,OVC,0.00,WeatherDisplay:10.37,2013-02-02 18:37:00,
2013-02-02 13:42:00,72.1,47.1,30.25,NW,315,5.1,9.2,41,0.00,CLR,OVC,0.00,WeatherDisplay:10.37,2013-02-02 18:42:00,
2013-02-02 13:47:00,72.6,47.5,30.25,NW,319,4.0,5.8,41,0.00,CLR,OVC,0.00,WeatherDisplay:10.37,2013-02-02 18:47:00,
2013-02-02 13:52:00,72.8,48.4,30.24,North,360,4.2,6.9,42,0.00,CLR,OVC,0.00,WeatherDisplay:10.37,2013-02-02 18:52:00,
2013-02-02 13:57:00,73.4,48.3,30.24,NW,308,3.0,9.2,41,0.00,CLR,OVC,0.00,WeatherDisplay:10.37,2013-02-02 18:57:00,
2013-02-02 14:02:00,73.3,47.5,30.24,NNW,329,6.1,10.4,40,0.00,CLR,OVC,0.00,WeatherDisplay:10.37,2013-02-02 19:02:00,
2013-02-02 14:07:00,73.1,48.6,30.24,NNE,20,4.8,9.2,42,0.00,CLR,OVC,0.00,WeatherDisplay:10.37,2013-02-02 19:07:00,
2013-02-02 14:12:00,73.3,48.8,30.24,WNW,301,4.2,8.2,42,0.00,CLR,OVC,0.00,WeatherDisplay:10.37,2013-02-02 19:12:00,
2013-02-02 14:17:00,73.3,50.1,30.23,NNE,16,3.3,5.8,44,0.00,CLR,OVC,0.00,WeatherDisplay:10.37,2013-02-02 19:17:00,
2013-02-02 14:22:00,73.8,48.6,30.23,NW,311,4.4,8.1,41,0.00,CLR,OVC,0.00,WeatherDisplay:10.37,2013-02-02 19:22:00,
2013-02-02 14:27:00,74.2,49.6,30.23,NW,322,5.3,9.2,42,0.00,CLR,OVC,0.00,WeatherDisplay:10.37,2013-02-02 19:27:00,
2013-02-02 14:32:00,74.3,49.7,30.23,NNE,20,1.6,3.7,42,0.00,CLR,OVC,0.00,WeatherDisplay:10.37,2013-02-02 19:32:00,
2013-02-02 14:37:00,74.2,49.6,30.22,NW,316,4.4,6.9,42,0.00,CLR,OVC,0.00,WeatherDisplay:10.37,2013-02-02 19:37:00,
2013-02-02 14:42:00,74.0,49.4,30.22,NNW,347,1.0,2.3,42,0.00,CLR,OVC,0.00,WeatherDisplay:10.37,2013-02-02 19:42:00,
2013-02-02 14:47:00,74.4,49.8,30.22,NNW,339,2.7,5.8,42,0.00,CLR,OVC,0.00,WeatherDisplay:10.37,2013-02-02 19:47:00,
2013-02-02 14:52:00,74.6,49.3,30.22,NNW,335,4.2,8.1,41,0.00,CLR,OVC,0.00,WeatherDisplay:10.37,2013-02-02 19:52:00,
2013-02-02 14:57:00,73.3,48.8,30.22,WNW,298,5.5,8.1,42,0.00,CLR,OVC,0.00,WeatherDisplay:10.37,2013-02-02 19:57:00,
2013-02-02 15:02:00,72.5,48.1,30.22,WNW,302,3.5,5.8,42,0.00,CLR,OVC,0.00,WeatherDisplay:10.37,2013-02-02 20:02:00,
2013-02-02 15:07:00,72.6,48.2,30.22,WNW,296,3.0,6.9,42,0.00,CLR,OVC,0.00,WeatherDisplay:10.37,2013-02-02 20:07:00,
2013-02-02 15:12:00,72.9,47.8,30.22,NW,305,3.7,9.2,41,0.00,CLR,OVC,0.00,WeatherDisplay:10.37,2013-02-02 20:12:00,
2013-02-02 15:17:00,71.9,47.6,30.22,NW,322,3.0,5.8,42,0.00,CLR,OVC,0.00,WeatherDisplay:10.37,2013-02-02 20:17:00,
2013-02-02 15:22:00,72.4,46.0,30.22,WNW,299,4.6,5.8,39,0.00,CLR,OVC,0.00,WeatherDisplay:10.37,2013-02-02 20:22:00,
2013-02-02 15:27:00,72.2,46.5,30.21,NW,319,3.7,5.8,40,0.00,CLR,OVC,0.00,WeatherDisplay:10.37,2013-02-02 20:27:00,
2013-02-02 15:32:00,73.3,47.5,30.21,West,277,2.4,5.8,40,0.00,CLR,OVC,0.00,WeatherDisplay:10.37,2013-02-02 20:32:00,
2013-02-02 15:37:00,74.1,47.6,30.21,NW,311,3.1,5.8,39,0.00,CLR,OVC,0.00,WeatherDisplay:10.37,2013-02-02 20:37:00,
2013-02-02 15:42:00,74.2,48.3,30.21,NW,304,1.4,3.5,40,0.00,CLR,OVC,0.00,WeatherDisplay:10.37,2013-02-02 20:42:00,
2013-02-02 15:47:00,72.7,48.3,30.21,NW,304,4.0,6.9,42,0.00,CLR,OVC,0.00,WeatherDisplay:10.37,2013-02-02 20:47:00,
2013-02-02 15:52:00,72.7,49.5,30.21,NNW,328,3.8,5.8,44,0.00,CLR,OVC,0.00,WeatherDisplay:10.37,2013-02-02 20:52:00,
2013-02-02 15:57:00,73.3,49.4,30.21,West,260,4.6,6.9,43,0.00,CLR,OVC,0.00,WeatherDisplay:10.37,2013-02-02 20:57:00,
2013-02-02 16:02:00,72.3,49.8,30.20,NW,320,4.6,8.1,45,0.00,CLR,OVC,0.00,WeatherDisplay:10.37,2013-02-02 21:02:00,
2013-02-02 16:07:00,71.9,48.8,30.20,NW,315,5.2,8.1,44,0.00,CLR,OVC,0.00,WeatherDisplay:10.37,2013-02-02 21:07:00,
2013-02-02 16:12:00,72.7,49.5,30.20,NW,313,4.0,8.1,44,0.00,CLR,OVC,0.00,WeatherDisplay:10.37,2013-02-02 21:12:00,
2013-02-02 16:17:00,73.7,49.2,30.20,North,6,2.6,5.8,42,0.00,CLR,OVC,0.00,WeatherDisplay:10.37,2013-02-02 21:17:00,
2013-02-02 16:22:00,74.4,49.8,30.21,NNW,344,4.0,6.9,42,0.00,CLR,OVC,0.00,WeatherDisplay:10.37,2013-02-02 21:22:00,
2013-02-02 16:27:00,74.6,49.3,30.20,NNW,330,3.6,5.8,41,0.00,CLR,OVC,0.00,WeatherDisplay:10.37,2013-02-02 21:27:00,
2013-02-02 16:32:00,75.2,50.5,30.20,NNE,16,4.2,9.2,42,0.00,CLR,OVC,0.00,WeatherDisplay:10.37,2013-02-02 21:32:00,
2013-02-02 16:37:00,75.2,49.9,30.20,North,6,2.8,4.6,41,0.00,CLR,OVC,0.00,WeatherDisplay:10.37,2013-02-02 21:37:00,
2013-02-02 16:42:00,75.3,50.6,30.20,NNW,342,4.7,8.1,42,0.00,CLR,OVC,0.00,WeatherDisplay:10.37,2013-02-02 21:42:00,
2013-02-02 16:47:00,74.9,49.6,30.21,North,6,4.2,6.9,41,0.00,CLR,OVC,0.00,WeatherDisplay:10.37,2013-02-02 21:47:00,
2013-02-02 16:52:00,75.0,51.0,30.20,NNW,337,5.8,9.2,43,0.00,CLR,OVC,0.00,WeatherDisplay:10.37,2013-02-02 21:52:00,
2013-02-02 16:57:00,74.4,50.4,30.20,WNW,291,5.0,8.1,43,0.00,CLR,OVC,0.00,WeatherDisplay:10.37,2013-02-02 21:57:00,
2013-02-02 17:02:00,74.1,50.8,30.20,WNW,299,1.9,4.6,44,0.00,CLR,OVC,0.00,WeatherDisplay:10.37,2013-02-02 22:02:00,
2013-02-02 17:07:00,72.9,50.9,30.20,NNW,340,6.5,10.4,46,0.00,CLR,OVC,0.00,WeatherDisplay:10.37,2013-02-02 22:07:00,
2013-02-02 17:12:00,70.9,50.8,30.21,NW,323,6.3,11.5,49,0.00,CLR,OVC,0.00,WeatherDisplay:10.37,2013-02-02 22:12:00,
2013-02-02 17:17:00,69.6,51.2,30.21,North,360,3.2,6.9,52,0.00,CLR,OVC,0.00,WeatherDisplay:10.37,2013-02-02 22:17:00,
2013-02-02 17:22:00,68.6,50.8,30.21,WNW,301,7.1,10.4,53,0.00,CLR,OVC,0.00,WeatherDisplay:10.37,2013-02-02 22:22:00,
2013-02-02 17:27:00,67.9,50.1,30.21,NNW,328,6.3,12.7,53,0.00,CLR,OVC,0.00,WeatherDisplay:10.37,2013-02-02 22:27:00,
2013-02-02 17:32:00,67.1,50.4,30.21,NW,309,5.5,9.2,55,0.00,CLR,OVC,0.00,WeatherDisplay:10.37,2013-02-02 22:32:00,
2013-02-02 17:37:00,66.7,50.5,30.21,NW,323,7.1,11.5,56,0.00,CLR,OVC,0.00,WeatherDisplay:10.37,2013-02-02 22:37:00,
2013-02-02 17:42:00,66.3,50.6,30.21,NW,306,4.4,8.1,57,0.00,CLR,OVC,0.00,WeatherDisplay:10.37,2013-02-02 22:42:00,
2013-02-02 17:47:00,65.9,50.2,30.21,North,1,3.6,8.1,57,0.00,CLR,OVC,0.00,WeatherDisplay:10.37,2013-02-02 22:47:00,
2013-02-02 17:52:00,65.6,50.4,30.21,North,360,4.9,8.1,58,0.00,CLR,OVC,0.00,WeatherDisplay:10.37,2013-02-02 22:52:00,
2013-02-02 17:57:00,65.4,49.8,30.21,NNW,332,3.8,6.9,57,0.00,CLR,OVC,0.00,WeatherDisplay:10.37,2013-02-02 22:57:00,
2013-02-02 18:02:00,65.0,49.9,30.21,WNW,294,5.4,8.1,58,0.00,CLR,OVC,0.00,WeatherDisplay:10.37,2013-02-02 23:02:00,
2013-02-02 18:07:00,64.7,49.6,30.21,North,1,2.5,4.6,58,0.00,CLR,OVC,0.00,WeatherDisplay:10.37,2013-02-02 23:07:00,
2013-02-02 18:12:00,64.7,49.6,30.21,NW,315,1.8,8.6,58,0.00,CLR,OVC,0.00,WeatherDisplay:10.37,2013-02-02 23:12:00,
2013-02-02 18:17:00,64.3,49.2,30.21,North,7,2.8,4.6,58,0.00,CLR,OVC,0.00,WeatherDisplay:10.37,2013-02-02 23:17:00,
2013-02-02 18:22:00,64.1,49.0,30.21,North,6,5.7,9.2,58,0.00,CLR,OVC,0.00,WeatherDisplay:10.37,2013-02-02 23:22:00,
2013-02-02 18:27:00,63.8,49.2,30.21,North,11,4.4,6.0,59,0.00,CLR,OVC,0.00,WeatherDisplay:10.37,2013-02-02 23:27:00,
2013-02-02 18:32:00,63.5,48.9,30.21,NNW,342,2.5,6.9,59,0.00,CLR,OVC,0.00,WeatherDisplay:10.37,2013-02-02 23:32:00,
2013-02-02 18:37:00,63.3,49.2,30.21,North,3,2.5,8.1,60,0.00,CLR,OVC,0.00,WeatherDisplay:10.37,2013-02-02 23:37:00,
2013-02-02 18:42:00,63.3,49.2,30.21,North,349,2.8,3.5,60,0.00,CLR,OVC,0.00,WeatherDisplay:10.37,2013-02-02 23:42:00,
2013-02-02 18:47:00,63.2,49.1,30.21,NW,311,1.5,3.5,60,0.00,CLR,OVC,0.00,WeatherDisplay:10.37,2013-02-02 23:47:00,
2013-02-02 18:52:00,63.0,49.3,30.21,NNW,328,1.8,4.6,61,0.00,CLR,OVC,0.00,WeatherDisplay:10.37,2013-02-02 23:52:00,
2013-02-02 18:57:00,62.8,49.1,30.21,NNW,342,3.7,3.9,61,0.00,CLR,OVC,0.00,WeatherDisplay:10.37,2013-02-02 23:57:00,
2013-02-02 19:02:00,62.5,49.3,30.21,North,360,1.7,3.5,62,0.00,CLR,OVC,0.00,WeatherDisplay:10.37,2013-02-03 00:02:00,
2013-02-02 19:07:00,62.5,49.3,30.21,North,360,0.7,3.5,62,0.00,CLR,OVC,0.00,WeatherDisplay:10.37,2013-02-03 00:07:00,
2013-02-02 19:12:00,62.3,49.1,30.21,NNW,337,1.7,4.6,62,0.00,CLR,OVC,0.00,WeatherDisplay:10.37,2013-02-03 00:12:00,
2013-02-02 19:17:00,62.2,49.0,30.22,NW,305,3.1,5.8,62,0.00,CLR,OVC,0.00,WeatherDisplay:10.37,2013-02-03 00:17:00,
2013-02-02 19:22:00,62.2,49.4,30.22,North,6,2.6,6.9,63,0.00,CLR,OVC,0.00,WeatherDisplay:10.37,2013-02-03 00:22:00,
2013-02-02 19:27:00,61.9,49.2,30.22,WNW,295,2.1,5.8,63,0.00,CLR,OVC,0.00,WeatherDisplay:10.37,2013-02-03 00:27:00,
2013-02-02 19:32:00,61.7,49.0,30.22,North,3,2.8,5.8,63,0.00,CLR,OVC,0.00,WeatherDisplay:10.37,2013-02-03 00:32:00,
2013-02-02 19:37:00,61.7,49.0,30.22,NNW,343,4.2,4.8,63,0.00,CLR,OVC,0.00,WeatherDisplay:10.37,2013-02-03 00:37:00,
2013-02-02 19:42:00,61.7,49.0,30.22,North,8,2.8,3.5,63,0.00,CLR,OVC,0.00,WeatherDisplay:10.37,2013-02-03 00:42:00,
2013-02-02 19:47:00,61.7,49.0,30.22,NW,326,3.0,4.6,63,0.00,CLR,OVC,0.00,WeatherDisplay:10.37,2013-02-03 00:47:00,
2013-02-02 19:52:00,61.5,48.8,30.22,NNW,330,4.1,6.9,63,0.00,CLR,OVC,0.00,WeatherDisplay:10.37,2013-02-03 00:52:00,
2013-02-02 19:57:00,61.4,48.7,30.22,NNE,14,3.1,6.9,63,0.00,CLR,OVC,0.00,WeatherDisplay:10.37,2013-02-03 00:57:00,
2013-02-02 20:02:00,61.3,48.6,30.22,WNW,282,2.3,4.6,63,0.00,CLR,OVC,0.00,WeatherDisplay:10.37,2013-02-03 01:02:00,
2013-02-02 20:07:00,61.1,48.4,30.22,NNE,24,2.6,5.8,63,0.00,CLR,OVC,0.00,WeatherDisplay:10.37,2013-02-03 01:07:00,
2013-02-02 20:12:00,61.0,48.7,30.22,NNE,13,3.4,4.6,64,0.00,CLR,OVC,0.00,WeatherDisplay:10.37,2013-02-03 01:12:00,
2013-02-02 20:17:00,60.9,48.6,30.22,North,357,2.4,5.8,64,0.00,CLR,OVC,0.00,WeatherDisplay:10.37,2013-02-03 01:17:00,
2013-02-02 20:22:00,61.0,48.7,30.22,North,353,1.7,4.6,64,0.00,CLR,OVC,0.00,WeatherDisplay:10.37,2013-02-03 01:22:00,
2013-02-02 20:27:00,60.8,48.5,30.22,North,350,2.0,3.5,64,0.00,CLR,OVC,0.00,WeatherDisplay:10.37,2013-02-03 01:27:00,
2013-02-02 20:32:00,60.6,48.4,30.22,NNE,31,3.2,6.9,64,0.00,CLR,OVC,0.00,WeatherDisplay:10.37,2013-02-03 01:32:00,
2013-02-02 20:37:00,60.5,48.7,30.22,NW,325,2.0,6.9,65,0.00,CLR,OVC,0.00,WeatherDisplay:10.37,2013-02-03 01:37:00,
2013-02-02 20:43:00,60.5,48.7,30.22,NW,323,3.6,6.9,65,0.00,CLR,OVC,0.00,WeatherDisplay:10.37,2013-02-03 01:43:00,
2013-02-02 20:48:00,60.5,48.7,30.22,NW,320,1.9,4.6,65,0.00,CLR,OVC,0.00,WeatherDisplay:10.37,2013-02-03 01:48:00,
2013-02-02 20:53:00,60.2,48.8,30.22,WSW,240,3.0,5.8,66,0.00,CLR,OVC,0.00,WeatherDisplay:10.37,2013-02-03 01:53:00,
2013-02-02 20:58:00,60.2,48.8,30.22,NNW,335,2.0,4.6,66,0.00,CLR,OVC,0.00,WeatherDisplay:10.37,2013-02-03 01:58:00,
2013-02-02 21:03:00,60.1,48.7,30.22,NNW,333,2.8,5.3,66,0.00,CLR,OVC,0.00,WeatherDisplay:10.37,2013-02-03 02:03:00,
2013-02-02 21:08:00,59.9,48.9,30.22,NNW,344,2.8,5.8,67,0.00,CLR,OVC,0.00,WeatherDisplay:10.37,2013-02-03 02:08:00,
2013-02-02 21:13:00,60.0,49.0,30.22,NW,320,5.3,10.4,67,0.00,CLR,OVC,0.00,WeatherDisplay:10.37,2013-02-03 02:13:00,
2013-02-02 21:18:00,59.9,48.9,30.22,NNW,332,3.4,5.8,67,0.00,CLR,OVC,0.00,WeatherDisplay:10.37,2013-02-03 02:18:00,
2013-02-02 21:23:00,59.7,48.7,30.22,NNW,340,1.1,3.5,67,0.00,CLR,OVC,0.00,WeatherDisplay:10.37,2013-02-03 02:23:00,
2013-02-02 21:28:00,59.5,48.1,30.22,NNW,339,3.9,6.9,66,0.00,CLR,OVC,0.00,WeatherDisplay:10.37,2013-02-03 02:28:00,
2013-02-02 21:33:00,59.5,48.5,30.21,NW,304,1.9,4.6,67,0.00,CLR,OVC,0.00,WeatherDisplay:10.37,2013-02-03 02:33:00,
2013-02-02 21:38:00,59.5,48.5,30.21,NNW,332,2.7,5.8,67,0.00,CLR,OVC,0.00,WeatherDisplay:10.37,2013-02-03 02:38:00,
2013-02-02 21:43:00,59.4,48.4,30.21,NW,323,1.5,4.6,67,0.00,CLR,OVC,0.00,WeatherDisplay:10.37,2013-02-03 02:43:00,
2013-02-02 21:48:00,59.5,48.5,30.21,North,353,0.0,0.0,67,0.00,CLR,OVC,0.00,WeatherDisplay:10.37,2013-02-03 02:48:00,
2013-02-02 21:53:00,59.5,48.5,30.21,NW,318,3.1,5.8,67,0.00,CLR,OVC,0.00,WeatherDisplay:10.37,2013-02-03 02:53:00,
2013-02-02 21:58:00,59.4,48.4,30.22,North,357,3.5,6.9,67,0.00,CLR,OVC,0.00,WeatherDisplay:10.37,2013-02-03 02:58:00,
2013-02-02 22:03:00,59.2,48.2,30.21,North,359,2.1,6.9,67,0.00,CLR,OVC,0.00,WeatherDisplay:10.37,2013-02-03 03:03:00,
2013-02-02 22:08:00,59.2,48.6,30.21,NW,318,3.3,6.9,68,0.00,CLR,OVC,0.00,WeatherDisplay:10.37,2013-02-03 03:08:00,
2013-02-02 22:13:00,59.0,48.1,30.21,NW,318,3.4,6.9,67,0.00,CLR,OVC,0.00,WeatherDisplay:10.37,2013-02-03 03:13:00,
2013-02-02 22:18:00,59.0,48.1,30.21,NNE,27,5.3,9.2,67,0.00,CLR,OVC,0.00,WeatherDisplay:10.37,2013-02-03 03:18:00,
2013-02-02 22:23:00,58.9,48.0,30.21,North,350,3.1,5.8,67,0.00,CLR,OVC,0.00,WeatherDisplay:10.37,2013-02-03 03:23:00,
2013-02-02 22:28:00,58.9,48.0,30.21,NW,306,4.5,5.8,67,0.00,CLR,OVC,0.00,WeatherDisplay:10.37,2013-02-03 03:28:00,
2013-02-02 22:33:00,58.8,47.9,30.21,NW,316,1.9,4.6,67,0.00,CLR,OVC,0.00,WeatherDisplay:10.37,2013-02-03 03:33:00,
2013-02-02 22:38:00,58.8,47.9,30.21,NW,323,2.5,4.6,67,0.00,CLR,OVC,0.00,WeatherDisplay:10.37,2013-02-03 03:38:00,
2013-02-02 22:43:00,58.7,47.8,30.21,NNW,330,3.3,5.8,67,0.00,CLR,OVC,0.00,WeatherDisplay:10.37,2013-02-03 03:43:00,
2013-02-02 22:48:00,58.6,47.7,30.21,North,356,2.1,6.9,67,0.00,CLR,OVC,0.00,WeatherDisplay:10.37,2013-02-03 03:48:00,
2013-02-02 22:53:00,58.6,48.1,30.21,NW,322,0.8,4.6,68,0.00,CLR,OVC,0.00,WeatherDisplay:10.37,2013-02-03 03:53:00,
2013-02-02 22:58:00,58.7,48.2,30.21,NNW,342,2.3,5.4,68,0.00,CLR,OVC,0.00,WeatherDisplay:10.37,2013-02-03 03:58:00,
2013-02-02 23:03:00,58.3,47.8,30.21,North,356,3.9,8.1,68,0.00,CLR,OVC,0.00,WeatherDisplay:10.37,2013-02-03 04:03:00,
2013-02-02 23:08:00,58.3,47.8,30.21,NW,326,4.0,8.1,68,0.00,CLR,OVC,0.00,WeatherDisplay:10.37,2013-02-03 04:08:00,
2013-02-02 23:13:00,58.2,47.7,30.22,NNW,329,4.1,8.1,68,0.00,CLR,OVC,0.00,WeatherDisplay:10.37,2013-02-03 04:13:00,
2013-02-02 23:18:00,58.3,47.8,30.22,NNW,346,4.1,6.9,68,0.00,CLR,OVC,0.00,WeatherDisplay:10.37,2013-02-03 04:18:00,
2013-02-02 23:23:00,58.2,47.3,30.22,NNW,328,4.3,8.1,67,0.00,CLR,OVC,0.00,WeatherDisplay:10.37,2013-02-03 04:23:00,
2013-02-02 23:28:00,58.2,46.9,30.21,NNW,340,4.5,6.9,66,0.00,CLR,OVC,0.00,WeatherDisplay:10.37,2013-02-03 04:28:00,
2013-02-02 23:33:00,58.2,46.9,30.21,NNW,343,2.9,4.6,66,0.00,CLR,OVC,0.00,WeatherDisplay:10.37,2013-02-03 04:33:00,
2013-02-02 23:38:00,58.2,47.3,30.21,North,1,3.4,8.1,67,0.00,CLR,OVC,0.00,WeatherDisplay:10.37,2013-02-03 04:38:00,
2013-02-02 23:43:00,58.2,47.3,30.21,WNW,299,3.3,9.2,67,0.00,CLR,OVC,0.00,WeatherDisplay:10.37,2013-02-03 04:43:00,
2013-02-02 23:48:00,58.2,47.3,30.21,NNW,339,3.8,6.9,67,0.00,CLR,OVC,0.00,WeatherDisplay:10.37,2013-02-03 04:48:00,
2013-02-02 23:53:00,58.1,47.2,30.21,NNW,344,3.5,3.5,67,0.00,CLR,OVC,0.00,WeatherDisplay:10.37,2013-02-03 04:53:00,
2013-02-02 23:58:00,58.1,47.2,30.21,NNW,332,4.6,8.1,67,0.00,CLR,OVC,0.00,WeatherDisplay:10.37,2013-02-03 04:58:00,